sensor_id;sensor_type;location;lat;lon;timestamp;temperature;humidity
71047;SHT31;58703;48.978;8.982;2022-10-01T00:01:54;4.48;99.99
71047;SHT31;58703;48.978;8.982;2022-10-01T00:04:19;4.44;99.99
71047;SHT31;58703;48.978;8.982;2022-10-01T00:06:45;4.53;99.99
71047;SHT31;58703;48.978;8.982;2022-10-01T00:09:11;4.56;99.99
71047;SHT31;58703;48.978;8.982;2022-10-01T00:11:36;4.54;99.77
71047;SHT31;58703;48.978;8.982;2022-10-01T00:14:02;4.46;99.76
71047;SHT31;58703;48.978;8.982;2022-10-01T00:16:29;4.37;99.99
71047;SHT31;58703;48.978;8.982;2022-10-01T00:18:55;4.50;99.99
71047;SHT31;58703;48.978;8.982;2022-10-01T00:21:25;4.61;99.99
71047;SHT31;58703;48.978;8.982;2022-10-01T00:23:57;4.71;99.99
71047;SHT31;58703;48.978;8.982;2022-10-01T00:26:25;4.68;99.99
71047;SHT31;58703;48.978;8.982;2022-10-01T00:29:03;4.64;99.99
71047;SHT31;58703;48.978;8.982;2022-10-01T00:31:29;4.72;99.99
71047;SHT31;58703;48.978;8.982;2022-10-01T00:33:56;4.64;99.60
71047;SHT31;58703;48.978;8.982;2022-10-01T00:36:23;4.41;99.49
71047;SHT31;58703;48.978;8.982;2022-10-01T00:38:49;4.56;99.51
71047;SHT31;58703;48.978;8.982;2022-10-01T00:41:15;4.51;99.39
71047;SHT31;58703;48.978;8.982;2022-10-01T00:43:44;4.47;99.49
71047;SHT31;58703;48.978;8.982;2022-10-01T00:46:23;4.33;99.99
71047;SHT31;58703;48.978;8.982;2022-10-01T00:49:02;4.32;99.99
71047;SHT31;58703;48.978;8.982;2022-10-01T00:51:35;4.30;99.99
71047;SHT31;58703;48.978;8.982;2022-10-01T00:54:08;4.32;99.99
71047;SHT31;58703;48.978;8.982;2022-10-01T00:56:35;4.54;99.99
71047;SHT31;58703;48.978;8.982;2022-10-01T00:59:03;4.53;99.99
71047;SHT31;58703;48.978;8.982;2022-10-01T01:01:28;4.50;99.55
71047;SHT31;58703;48.978;8.982;2022-10-01T01:03:55;4.48;99.99
71047;SHT31;58703;48.978;8.982;2022-10-01T01:06:21;4.60;99.99
71047;SHT31;58703;48.978;8.982;2022-10-01T01:08:46;4.50;99.99
71047;SHT31;58703;48.978;8.982;2022-10-01T01:13:57;4.47;99.99
71047;SHT31;58703;48.978;8.982;2022-10-01T01:16:31;4.51;99.99
71047;SHT31;58703;48.978;8.982;2022-10-01T01:19:09;4.61;99.99
71047;SHT31;58703;48.978;8.982;2022-10-01T01:21:46;4.57;99.99
71047;SHT31;58703;48.978;8.982;2022-10-01T01:29:50;4.81;99.60
71047;SHT31;58703;48.978;8.982;2022-10-01T01:34:58;4.81;99.69
71047;SHT31;58703;48.978;8.982;2022-10-01T01:37:29;4.87;99.99
71047;SHT31;58703;48.978;8.982;2022-10-01T01:39:58;4.81;99.99
71047;SHT31;58703;48.978;8.982;2022-10-01T01:42:34;4.75;99.99
71047;SHT31;58703;48.978;8.982;2022-10-01T01:45:03;4.75;99.99
71047;SHT31;58703;48.978;8.982;2022-10-01T01:47:31;4.74;99.99
71047;SHT31;58703;48.978;8.982;2022-10-01T01:50:00;4.87;99.99
71047;SHT31;58703;48.978;8.982;2022-10-01T01:52:28;4.91;99.99
71047;SHT31;58703;48.978;8.982;2022-10-01T01:54:55;5.04;99.99
71047;SHT31;58703;48.978;8.982;2022-10-01T01:57:21;4.98;99.99
71047;SHT31;58703;48.978;8.982;2022-10-01T01:59:47;4.95;99.96
71047;SHT31;58703;48.978;8.982;2022-10-01T02:02:16;5.05;99.99
71047;SHT31;58703;48.978;8.982;2022-10-01T02:04:46;5.11;99.99
71047;SHT31;58703;48.978;8.982;2022-10-01T02:10:12;5.29;99.99
71047;SHT31;58703;48.978;8.982;2022-10-01T02:15:27;5.13;99.99
71047;SHT31;58703;48.978;8.982;2022-10-01T02:26:25;5.13;99.99
71047;SHT31;58703;48.978;8.982;2022-10-01T02:28:54;5.05;99.99
71047;SHT31;58703;48.978;8.982;2022-10-01T02:31:22;5.08;99.99
71047;SHT31;58703;48.978;8.982;2022-10-01T02:33:51;5.19;99.99
71047;SHT31;58703;48.978;8.982;2022-10-01T02:36:18;5.29;99.99
71047;SHT31;58703;48.978;8.982;2022-10-01T02:38:45;5.33;99.99
71047;SHT31;58703;48.978;8.982;2022-10-01T02:41:16;5.30;99.99
71047;SHT31;58703;48.978;8.982;2022-10-01T02:43:56;5.39;99.99
71047;SHT31;58703;48.978;8.982;2022-10-01T02:46:28;5.61;99.99
71047;SHT31;58703;48.978;8.982;2022-10-01T02:48:55;5.46;99.99
71047;SHT31;58703;48.978;8.982;2022-10-01T02:51:35;5.43;99.99
71047;SHT31;58703;48.978;8.982;2022-10-01T02:54:07;5.35;99.99
71047;SHT31;58703;48.978;8.982;2022-10-01T02:56:35;5.30;99.99
71047;SHT31;58703;48.978;8.982;2022-10-01T02:59:20;5.28;99.99
71047;SHT31;58703;48.978;8.982;2022-10-01T03:01:46;5.30;99.99
71047;SHT31;58703;48.978;8.982;2022-10-01T03:04:12;5.36;99.99
71047;SHT31;58703;48.978;8.982;2022-10-01T03:06:38;5.33;99.99
71047;SHT31;58703;48.978;8.982;2022-10-01T03:09:03;5.36;99.99
71047;SHT31;58703;48.978;8.982;2022-10-01T03:11:29;5.39;99.99
71047;SHT31;58703;48.978;8.982;2022-10-01T03:13:54;5.36;99.99
71047;SHT31;58703;48.978;8.982;2022-10-01T03:16:20;5.39;99.99
71047;SHT31;58703;48.978;8.982;2022-10-01T03:18:46;5.47;99.99
71047;SHT31;58703;48.978;8.982;2022-10-01T03:21:11;5.61;99.99
71047;SHT31;58703;48.978;8.982;2022-10-01T03:23:37;5.69;99.99
71047;SHT31;58703;48.978;8.982;2022-10-01T03:26:02;5.67;99.99
71047;SHT31;58703;48.978;8.982;2022-10-01T03:28:28;5.90;99.99
71047;SHT31;58703;48.978;8.982;2022-10-01T03:31:03;5.90;99.99
71047;SHT31;58703;48.978;8.982;2022-10-01T03:33:29;6.05;99.99
71047;SHT31;58703;48.978;8.982;2022-10-01T03:35:54;6.15;99.99
71047;SHT31;58703;48.978;8.982;2022-10-01T03:38:20;6.14;99.99
71047;SHT31;58703;48.978;8.982;2022-10-01T03:40:45;6.20;99.99
71047;SHT31;58703;48.978;8.982;2022-10-01T03:43:11;6.13;99.99
71047;SHT31;58703;48.978;8.982;2022-10-01T03:45:36;6.25;99.99
71047;SHT31;58703;48.978;8.982;2022-10-01T03:48:02;6.35;99.99
71047;SHT31;58703;48.978;8.982;2022-10-01T03:50:27;6.72;99.99
71047;SHT31;58703;48.978;8.982;2022-10-01T03:52:53;7.07;99.99
71047;SHT31;58703;48.978;8.982;2022-10-01T03:55:18;7.07;99.71
71047;SHT31;58703;48.978;8.982;2022-10-01T03:57:44;7.18;99.89
71047;SHT31;58703;48.978;8.982;2022-10-01T04:00:10;7.17;99.81
71047;SHT31;58703;48.978;8.982;2022-10-01T04:02:36;7.14;99.31
71047;SHT31;58703;48.978;8.982;2022-10-01T04:05:01;7.11;99.57
71047;SHT31;58703;48.978;8.982;2022-10-01T04:07:27;7.10;99.78
71047;SHT31;58703;48.978;8.982;2022-10-01T04:09:52;7.16;98.93
71047;SHT31;58703;48.978;8.982;2022-10-01T04:12:18;7.10;99.33
71047;SHT31;58703;48.978;8.982;2022-10-01T04:14:43;7.14;99.99
71047;SHT31;58703;48.978;8.982;2022-10-01T04:17:09;7.14;99.45
71047;SHT31;58703;48.978;8.982;2022-10-01T04:19:34;7.23;99.61
71047;SHT31;58703;48.978;8.982;2022-10-01T04:22:00;7.10;99.90
71047;SHT31;58703;48.978;8.982;2022-10-01T04:24:25;7.18;99.99
71047;SHT31;58703;48.978;8.982;2022-10-01T04:26:51;7.26;99.22
71047;SHT31;58703;48.978;8.982;2022-10-01T04:29:16;7.32;99.31
71047;SHT31;58703;48.978;8.982;2022-10-01T04:31:42;7.69;98.01
71047;SHT31;58703;48.978;8.982;2022-10-01T04:34:07;7.62;98.78
71047;SHT31;58703;48.978;8.982;2022-10-01T04:36:33;7.50;99.12
71047;SHT31;58703;48.978;8.982;2022-10-01T04:38:58;7.68;98.90
71047;SHT31;58703;48.978;8.982;2022-10-01T04:41:24;7.68;98.37
71047;SHT31;58703;48.978;8.982;2022-10-01T04:43:50;7.65;98.41
71047;SHT31;58703;48.978;8.982;2022-10-01T04:46:15;7.79;98.72
71047;SHT31;58703;48.978;8.982;2022-10-01T04:48:41;7.89;97.79
71047;SHT31;58703;48.978;8.982;2022-10-01T04:51:07;8.01;97.11
71047;SHT31;58703;48.978;8.982;2022-10-01T04:53:32;7.86;98.50
71047;SHT31;58703;48.978;8.982;2022-10-01T04:55:58;7.89;98.96
71047;SHT31;58703;48.978;8.982;2022-10-01T04:58:24;7.95;98.97
71047;SHT31;58703;48.978;8.982;2022-10-01T05:00:49;7.74;99.06
71047;SHT31;58703;48.978;8.982;2022-10-01T05:03:16;7.78;99.41
71047;SHT31;58703;48.978;8.982;2022-10-01T05:05:41;7.89;98.64
71047;SHT31;58703;48.978;8.982;2022-10-01T05:08:07;7.92;99.15
71047;SHT31;58703;48.978;8.982;2022-10-01T05:10:33;7.89;99.00
71047;SHT31;58703;48.978;8.982;2022-10-01T05:12:59;7.98;97.97
71047;SHT31;58703;48.978;8.982;2022-10-01T05:15:27;8.02;98.09
71047;SHT31;58703;48.978;8.982;2022-10-01T05:17:53;8.05;97.71
71047;SHT31;58703;48.978;8.982;2022-10-01T05:20:22;7.89;97.33
71047;SHT31;58703;48.978;8.982;2022-10-01T05:22:48;8.05;97.63
71047;SHT31;58703;48.978;8.982;2022-10-01T05:25:15;8.13;97.22
71047;SHT31;58703;48.978;8.982;2022-10-01T05:27:41;8.07;97.72
71047;SHT31;58703;48.978;8.982;2022-10-01T05:30:09;8.01;97.57
71047;SHT31;58703;48.978;8.982;2022-10-01T05:32:35;8.10;97.45
71047;SHT31;58703;48.978;8.982;2022-10-01T05:35:02;8.09;97.65
71047;SHT31;58703;48.978;8.982;2022-10-01T05:37:28;8.09;98.01
71047;SHT31;58703;48.978;8.982;2022-10-01T05:39:54;8.06;98.51
71047;SHT31;58703;48.978;8.982;2022-10-01T05:42:20;7.99;98.58
71047;SHT31;58703;48.978;8.982;2022-10-01T05:44:45;8.05;99.38
71047;SHT31;58703;48.978;8.982;2022-10-01T05:47:12;8.09;98.64
71047;SHT31;58703;48.978;8.982;2022-10-01T05:49:39;8.02;99.00
71047;SHT31;58703;48.978;8.982;2022-10-01T05:52:10;8.13;99.49
71047;SHT31;58703;48.978;8.982;2022-10-01T05:54:36;8.22;99.54
71047;SHT31;58703;48.978;8.982;2022-10-01T05:57:03;8.23;99.16
71047;SHT31;58703;48.978;8.982;2022-10-01T05:59:29;8.22;99.40
71047;SHT31;58703;48.978;8.982;2022-10-01T06:01:55;8.30;99.55
71047;SHT31;58703;48.978;8.982;2022-10-01T06:04:20;8.43;98.99
71047;SHT31;58703;48.978;8.982;2022-10-01T06:06:46;8.43;99.13
71047;SHT31;58703;48.978;8.982;2022-10-01T06:09:12;8.44;99.23
71047;SHT31;58703;48.978;8.982;2022-10-01T06:11:38;8.52;98.89
71047;SHT31;58703;48.978;8.982;2022-10-01T06:14:05;8.49;99.02
71047;SHT31;58703;48.978;8.982;2022-10-01T06:16:30;8.46;99.51
71047;SHT31;58703;48.978;8.982;2022-10-01T06:18:57;8.46;99.70
71047;SHT31;58703;48.978;8.982;2022-10-01T06:21:24;8.53;99.99
71047;SHT31;58703;48.978;8.982;2022-10-01T06:23:50;8.53;99.91
71047;SHT31;58703;48.978;8.982;2022-10-01T06:26:17;8.63;99.56
71047;SHT31;58703;48.978;8.982;2022-10-01T06:28:43;8.73;99.54
71047;SHT31;58703;48.978;8.982;2022-10-01T06:31:09;8.77;99.59
71047;SHT31;58703;48.978;8.982;2022-10-01T06:33:35;8.81;99.32
71047;SHT31;58703;48.978;8.982;2022-10-01T06:36:02;8.95;99.11
71047;SHT31;58703;48.978;8.982;2022-10-01T06:38:28;9.04;98.54
71047;SHT31;58703;48.978;8.982;2022-10-01T06:40:57;9.03;98.43
71047;SHT31;58703;48.978;8.982;2022-10-01T06:43:25;9.07;98.38
71047;SHT31;58703;48.978;8.982;2022-10-01T06:45:51;9.03;98.50
71047;SHT31;58703;48.978;8.982;2022-10-01T06:48:17;9.19;98.78
71047;SHT31;58703;48.978;8.982;2022-10-01T06:50:45;9.25;97.97
71047;SHT31;58703;48.978;8.982;2022-10-01T06:53:12;9.22;98.18
71047;SHT31;58703;48.978;8.982;2022-10-01T06:55:38;9.21;98.10
71047;SHT31;58703;48.978;8.982;2022-10-01T06:58:06;9.25;97.97
71047;SHT31;58703;48.978;8.982;2022-10-01T07:00:34;9.28;97.80
71047;SHT31;58703;48.978;8.982;2022-10-01T07:03:02;9.31;97.18
71047;SHT31;58703;48.978;8.982;2022-10-01T07:05:29;9.26;98.01
71047;SHT31;58703;48.978;8.982;2022-10-01T07:07:55;9.32;97.22
71047;SHT31;58703;48.978;8.982;2022-10-01T07:10:21;9.29;97.81
71047;SHT31;58703;48.978;8.982;2022-10-01T07:12:48;9.26;97.79
71047;SHT31;58703;48.978;8.982;2022-10-01T07:15:16;9.26;97.60
71047;SHT31;58703;48.978;8.982;2022-10-01T07:17:46;9.28;97.97
71047;SHT31;58703;48.978;8.982;2022-10-01T07:20:17;9.34;98.33
71047;SHT31;58703;48.978;8.982;2022-10-01T07:22:44;9.35;98.57
71047;SHT31;58703;48.978;8.982;2022-10-01T07:25:10;9.35;98.64
71047;SHT31;58703;48.978;8.982;2022-10-01T07:27:36;9.36;98.57
71047;SHT31;58703;48.978;8.982;2022-10-01T07:30:02;9.43;98.62
71047;SHT31;58703;48.978;8.982;2022-10-01T07:32:30;9.34;98.66
71047;SHT31;58703;48.978;8.982;2022-10-01T07:34:57;9.31;99.35
71047;SHT31;58703;48.978;8.982;2022-10-01T07:37:24;9.28;99.42
71047;SHT31;58703;48.978;8.982;2022-10-01T07:39:52;9.31;99.60
71047;SHT31;58703;48.978;8.982;2022-10-01T07:42:18;9.36;99.91
71047;SHT31;58703;48.978;8.982;2022-10-01T07:44:45;9.39;99.70
71047;SHT31;58703;48.978;8.982;2022-10-01T07:47:12;9.40;99.69
71047;SHT31;58703;48.978;8.982;2022-10-01T07:49:39;9.52;99.51
71047;SHT31;58703;48.978;8.982;2022-10-01T07:52:05;9.53;99.54
71047;SHT31;58703;48.978;8.982;2022-10-01T07:54:30;9.53;99.13
71047;SHT31;58703;48.978;8.982;2022-10-01T07:56:56;9.50;99.61
71047;SHT31;58703;48.978;8.982;2022-10-01T07:59:22;9.50;99.75
71047;SHT31;58703;48.978;8.982;2022-10-01T08:01:49;9.49;99.48
71047;SHT31;58703;48.978;8.982;2022-10-01T08:04:16;9.56;99.33
71047;SHT31;58703;48.978;8.982;2022-10-01T08:07:04;9.59;98.80
71047;SHT31;58703;48.978;8.982;2022-10-01T08:09:29;9.62;98.81
71047;SHT31;58703;48.978;8.982;2022-10-01T08:11:55;9.66;99.20
71047;SHT31;58703;48.978;8.982;2022-10-01T08:14:20;9.69;98.91
71047;SHT31;58703;48.978;8.982;2022-10-01T08:16:47;9.73;98.26
71047;SHT31;58703;48.978;8.982;2022-10-01T08:19:13;9.75;98.18
71047;SHT31;58703;48.978;8.982;2022-10-01T08:21:41;9.77;98.03
71047;SHT31;58703;48.978;8.982;2022-10-01T08:24:08;9.83;98.51
71047;SHT31;58703;48.978;8.982;2022-10-01T08:26:34;9.89;98.45
71047;SHT31;58703;48.978;8.982;2022-10-01T08:28:59;9.91;97.70
71047;SHT31;58703;48.978;8.982;2022-10-01T08:31:27;9.94;97.63
71047;SHT31;58703;48.978;8.982;2022-10-01T08:33:57;9.96;98.12
71047;SHT31;58703;48.978;8.982;2022-10-01T08:36:23;9.99;98.01
71047;SHT31;58703;48.978;8.982;2022-10-01T08:38:49;9.99;98.03
71047;SHT31;58703;48.978;8.982;2022-10-01T08:41:31;10.01;98.14
71047;SHT31;58703;48.978;8.982;2022-10-01T08:44:00;10.01;98.14
71047;SHT31;58703;48.978;8.982;2022-10-01T08:46:29;10.01;97.75
71047;SHT31;58703;48.978;8.982;2022-10-01T08:57:24;10.30;98.54
71047;SHT31;58703;48.978;8.982;2022-10-01T08:59:54;10.42;98.73
71047;SHT31;58703;48.978;8.982;2022-10-01T09:04:52;10.62;98.44
71047;SHT31;58703;48.978;8.982;2022-10-01T09:07:38;10.67;98.13
71047;SHT31;58703;48.978;8.982;2022-10-01T09:10:26;10.60;97.41
71047;SHT31;58703;48.978;8.982;2022-10-01T09:21:57;10.76;99.02
71047;SHT31;58703;48.978;8.982;2022-10-01T09:24:45;10.81;98.80
71047;SHT31;58703;48.978;8.982;2022-10-01T09:27:27;10.82;97.81
71047;SHT31;58703;48.978;8.982;2022-10-01T09:30:19;10.82;98.60
71047;SHT31;58703;48.978;8.982;2022-10-01T09:32:56;10.95;98.77
71047;SHT31;58703;48.978;8.982;2022-10-01T09:35:31;10.89;99.66
71047;SHT31;58703;48.978;8.982;2022-10-01T09:38:05;10.76;99.61
71047;SHT31;58703;48.978;8.982;2022-10-01T09:43:04;10.82;99.64
71047;SHT31;58703;48.978;8.982;2022-10-01T09:45:33;10.83;99.28
71047;SHT31;58703;48.978;8.982;2022-10-01T09:48:10;10.83;99.62
71047;SHT31;58703;48.978;8.982;2022-10-01T09:50:42;10.79;99.98
71047;SHT31;58703;48.978;8.982;2022-10-01T09:53:19;10.89;99.49
71047;SHT31;58703;48.978;8.982;2022-10-01T09:55:53;10.78;99.99
71047;SHT31;58703;48.978;8.982;2022-10-01T09:58:25;10.72;99.99
71047;SHT31;58703;48.978;8.982;2022-10-01T10:00:53;10.73;99.99
71047;SHT31;58703;48.978;8.982;2022-10-01T10:03:24;10.81;99.99
71047;SHT31;58703;48.978;8.982;2022-10-01T10:05:53;10.85;99.99
71047;SHT31;58703;48.978;8.982;2022-10-01T10:08:34;10.93;99.64
71047;SHT31;58703;48.978;8.982;2022-10-01T10:11:01;10.98;99.70
71047;SHT31;58703;48.978;8.982;2022-10-01T10:16:05;11.15;99.70
71047;SHT31;58703;48.978;8.982;2022-10-01T10:18:34;11.18;99.65
71047;SHT31;58703;48.978;8.982;2022-10-01T10:21:15;11.19;99.78
71047;SHT31;58703;48.978;8.982;2022-10-01T10:23:56;11.23;99.11
71047;SHT31;58703;48.978;8.982;2022-10-01T10:26:37;11.34;99.04
71047;SHT31;58703;48.978;8.982;2022-10-01T10:29:05;11.44;99.27
71047;SHT31;58703;48.978;8.982;2022-10-01T10:31:41;11.57;97.86
71047;SHT31;58703;48.978;8.982;2022-10-01T10:34:16;11.78;97.99
71047;SHT31;58703;48.978;8.982;2022-10-01T10:36:44;11.85;97.41
71047;SHT31;58703;48.978;8.982;2022-10-01T10:39:22;11.99;97.69
71047;SHT31;58703;48.978;8.982;2022-10-01T10:41:50;12.05;96.51
71047;SHT31;58703;48.978;8.982;2022-10-01T10:44:17;12.05;98.01
71047;SHT31;58703;48.978;8.982;2022-10-01T10:46:47;12.18;97.20
71047;SHT31;58703;48.978;8.982;2022-10-01T10:49:16;12.13;96.28
71047;SHT31;58703;48.978;8.982;2022-10-01T10:51:53;12.01;97.76
71047;SHT31;58703;48.978;8.982;2022-10-01T10:54:23;12.08;96.85
71047;SHT31;58703;48.978;8.982;2022-10-01T10:56:57;12.10;97.95
71047;SHT31;58703;48.978;8.982;2022-10-01T10:59:32;11.98;96.59
71047;SHT31;58703;48.978;8.982;2022-10-01T11:02:00;12.02;97.77
71047;SHT31;58703;48.978;8.982;2022-10-01T11:04:41;12.11;95.97
71047;SHT31;58703;48.978;8.982;2022-10-01T11:07:08;12.29;96.55
71047;SHT31;58703;48.978;8.982;2022-10-01T11:15:28;12.14;95.18
71047;SHT31;58703;48.978;8.982;2022-10-01T11:20:51;12.05;95.18
71047;SHT31;58703;48.978;8.982;2022-10-01T11:23:54;12.15;95.55
71047;SHT31;58703;48.978;8.982;2022-10-01T11:27:15;12.20;95.10
71047;SHT31;58703;48.978;8.982;2022-10-01T11:35:15;12.59;93.26
71047;SHT31;58703;48.978;8.982;2022-10-01T11:40:21;12.60;92.68
71047;SHT31;58703;48.978;8.982;2022-10-01T11:42:51;12.73;92.45
71047;SHT31;58703;48.978;8.982;2022-10-01T11:45:30;12.87;90.48
71047;SHT31;58703;48.978;8.982;2022-10-01T11:48:34;12.79;92.13
71047;SHT31;58703;48.978;8.982;2022-10-01T11:51:06;12.72;91.86
71047;SHT31;58703;48.978;8.982;2022-10-01T11:53:38;12.82;91.77
71047;SHT31;58703;48.978;8.982;2022-10-01T11:56:39;12.86;91.48
71047;SHT31;58703;48.978;8.982;2022-10-01T11:59:33;12.93;91.48
71047;SHT31;58703;48.978;8.982;2022-10-01T12:02:25;12.99;91.78
71047;SHT31;58703;48.978;8.982;2022-10-01T12:05:02;13.09;90.42
71047;SHT31;58703;48.978;8.982;2022-10-01T12:07:51;13.24;89.74
71047;SHT31;58703;48.978;8.982;2022-10-01T12:10:37;13.43;89.99
71047;SHT31;58703;48.978;8.982;2022-10-01T12:21:13;13.95;87.44
71047;SHT31;58703;48.978;8.982;2022-10-01T12:23:49;14.04;87.78
71047;SHT31;58703;48.978;8.982;2022-10-01T12:28:56;14.13;88.70
71047;SHT31;58703;48.978;8.982;2022-10-01T12:34:27;14.02;87.18
71047;SHT31;58703;48.978;8.982;2022-10-01T12:37:01;14.01;87.19
71047;SHT31;58703;48.978;8.982;2022-10-01T12:42:45;14.19;86.89
71047;SHT31;58703;48.978;8.982;2022-10-01T12:45:29;14.18;85.83
71047;SHT31;58703;48.978;8.982;2022-10-01T12:48:09;14.13;85.48
71047;SHT31;58703;48.978;8.982;2022-10-01T12:50:50;14.13;85.37
71047;SHT31;58703;48.978;8.982;2022-10-01T12:56:12;14.13;85.70
71047;SHT31;58703;48.978;8.982;2022-10-01T13:01:48;14.21;85.32
71047;SHT31;58703;48.978;8.982;2022-10-01T13:09:54;14.34;84.73
71047;SHT31;58703;48.978;8.982;2022-10-01T13:12:46;14.56;83.04
71047;SHT31;58703;48.978;8.982;2022-10-01T13:15:22;14.76;82.63
71047;SHT31;58703;48.978;8.982;2022-10-01T13:18:12;14.88;84.27
71047;SHT31;58703;48.978;8.982;2022-10-01T13:31:16;15.55;80.52
71047;SHT31;58703;48.978;8.982;2022-10-01T13:33:55;15.93;78.77
71047;SHT31;58703;48.978;8.982;2022-10-01T13:38:54;15.61;80.01
71047;SHT31;58703;48.978;8.982;2022-10-01T13:41:22;15.59;81.06
71047;SHT31;58703;48.978;8.982;2022-10-01T13:43:51;15.42;80.04
71047;SHT31;58703;48.978;8.982;2022-10-01T13:46:22;15.51;80.69
71047;SHT31;58703;48.978;8.982;2022-10-01T13:48:49;15.55;80.43
71047;SHT31;58703;48.978;8.982;2022-10-01T13:51:15;15.65;79.61
71047;SHT31;58703;48.978;8.982;2022-10-01T13:56:09;15.66;78.81
71047;SHT31;58703;48.978;8.982;2022-10-01T13:58:45;15.75;77.12
71047;SHT31;58703;48.978;8.982;2022-10-01T14:04:13;15.69;78.09
71047;SHT31;58703;48.978;8.982;2022-10-01T14:06:53;15.83;77.71
71047;SHT31;58703;48.978;8.982;2022-10-01T14:09:28;15.61;77.94
71047;SHT31;58703;48.978;8.982;2022-10-01T14:12:02;15.59;79.12
71047;SHT31;58703;48.978;8.982;2022-10-01T14:14:55;15.62;77.77
71047;SHT31;58703;48.978;8.982;2022-10-01T14:17:42;15.63;78.19
71047;SHT31;58703;48.978;8.982;2022-10-01T14:20:19;15.65;77.53
71047;SHT31;58703;48.978;8.982;2022-10-01T14:25:44;16.05;77.37
71047;SHT31;58703;48.978;8.982;2022-10-01T14:31:06;16.56;74.91
71047;SHT31;58703;48.978;8.982;2022-10-01T14:33:52;17.49;71.38
71047;SHT31;58703;48.978;8.982;2022-10-01T14:36:34;17.52;70.93
71047;SHT31;58703;48.978;8.982;2022-10-01T14:39:03;16.75;72.79
71047;SHT31;58703;48.978;8.982;2022-10-01T14:41:33;16.50;73.22
71047;SHT31;58703;48.978;8.982;2022-10-01T14:44:00;16.00;75.17
71047;SHT31;58703;48.978;8.982;2022-10-01T14:46:26;15.89;75.00
71047;SHT31;58703;48.978;8.982;2022-10-01T14:48:56;16.24;75.59
71047;SHT31;58703;48.978;8.982;2022-10-01T14:51:26;15.92;76.09
71047;SHT31;58703;48.978;8.982;2022-10-01T14:53:54;15.85;75.54
71047;SHT31;58703;48.978;8.982;2022-10-01T14:56:23;16.02;75.51
71047;SHT31;58703;48.978;8.982;2022-10-01T14:58:58;15.95;75.30
71047;SHT31;58703;48.978;8.982;2022-10-01T15:01:27;16.09;75.15
71047;SHT31;58703;48.978;8.982;2022-10-01T15:03:53;17.11;71.62
71047;SHT31;58703;48.978;8.982;2022-10-01T15:06:22;17.08;69.76
71047;SHT31;58703;48.978;8.982;2022-10-01T15:08:51;17.05;72.79
71047;SHT31;58703;48.978;8.982;2022-10-01T15:11:27;17.73;69.93
71047;SHT31;58703;48.978;8.982;2022-10-01T15:13:56;17.08;70.45
71047;SHT31;58703;48.978;8.982;2022-10-01T15:16:26;16.89;72.20
71047;SHT31;58703;48.978;8.982;2022-10-01T15:18:56;16.92;71.54
71047;SHT31;58703;48.978;8.982;2022-10-01T15:21:35;16.85;71.82
71047;SHT31;58703;48.978;8.982;2022-10-01T15:24:03;16.78;72.90
71047;SHT31;58703;48.978;8.982;2022-10-01T15:26:30;16.40;71.66
71047;SHT31;58703;48.978;8.982;2022-10-01T15:29:04;16.24;74.65
71047;SHT31;58703;48.978;8.982;2022-10-01T15:31:32;16.07;74.50
71047;SHT31;58703;48.978;8.982;2022-10-01T15:34:02;15.78;75.18
71047;SHT31;58703;48.978;8.982;2022-10-01T15:36:29;15.51;75.30
71047;SHT31;58703;48.978;8.982;2022-10-01T15:38:56;15.56;76.49
71047;SHT31;58703;48.978;8.982;2022-10-01T15:41:30;15.46;76.90
71047;SHT31;58703;48.978;8.982;2022-10-01T15:44:01;15.32;77.09
71047;SHT31;58703;48.978;8.982;2022-10-01T15:46:28;15.41;76.22
71047;SHT31;58703;48.978;8.982;2022-10-01T15:51:43;15.27;76.27
71047;SHT31;58703;48.978;8.982;2022-10-01T15:54:33;15.23;76.16
71047;SHT31;58703;48.978;8.982;2022-10-01T15:57:00;15.21;77.11
71047;SHT31;58703;48.978;8.982;2022-10-01T15:59:26;15.25;76.12
71047;SHT31;58703;48.978;8.982;2022-10-01T16:01:52;15.17;76.61
71047;SHT31;58703;48.978;8.982;2022-10-01T16:04:19;15.17;76.30
71047;SHT31;58703;48.978;8.982;2022-10-01T16:06:48;15.15;76.67
71047;SHT31;58703;48.978;8.982;2022-10-01T16:09:21;15.10;77.42
71047;SHT31;58703;48.978;8.982;2022-10-01T16:11:58;15.03;77.22
71047;SHT31;58703;48.978;8.982;2022-10-01T16:14:34;15.10;75.57
71047;SHT31;58703;48.978;8.982;2022-10-01T16:19:46;15.00;77.52
71047;SHT31;58703;48.978;8.982;2022-10-01T16:24:51;14.95;77.18
71047;SHT31;58703;48.978;8.982;2022-10-01T16:27:21;14.93;77.00
71047;SHT31;58703;48.978;8.982;2022-10-01T16:30:17;14.80;78.26
71047;SHT31;58703;48.978;8.982;2022-10-01T16:32:43;14.83;77.92
71047;SHT31;58703;48.978;8.982;2022-10-01T16:35:26;14.81;77.48
71047;SHT31;58703;48.978;8.982;2022-10-01T16:37:55;14.80;77.74
71047;SHT31;58703;48.978;8.982;2022-10-01T16:40:22;14.74;78.21
71047;SHT31;58703;48.978;8.982;2022-10-01T16:42:50;14.76;78.30
71047;SHT31;58703;48.978;8.982;2022-10-01T16:45:21;14.81;77.30
71047;SHT31;58703;48.978;8.982;2022-10-01T16:47:49;14.76;77.96
71047;SHT31;58703;48.978;8.982;2022-10-01T16:50:18;14.69;78.56
71047;SHT31;58703;48.978;8.982;2022-10-01T16:52:43;14.76;77.49
71047;SHT31;58703;48.978;8.982;2022-10-01T16:55:31;14.57;78.95
71047;SHT31;58703;48.978;8.982;2022-10-01T16:58:01;14.59;78.93
71047;SHT31;58703;48.978;8.982;2022-10-01T17:00:27;14.63;78.79
71047;SHT31;58703;48.978;8.982;2022-10-01T17:02:54;14.70;77.93
71047;SHT31;58703;48.978;8.982;2022-10-01T17:07:48;14.52;79.90
71047;SHT31;58703;48.978;8.982;2022-10-01T17:10:15;14.49;79.57
71047;SHT31;58703;48.978;8.982;2022-10-01T17:12:41;14.47;79.25
71047;SHT31;58703;48.978;8.982;2022-10-01T17:15:09;14.43;79.56
71047;SHT31;58703;48.978;8.982;2022-10-01T17:17:36;14.52;79.16
71047;SHT31;58703;48.978;8.982;2022-10-01T17:20:02;14.43;80.14
71047;SHT31;58703;48.978;8.982;2022-10-01T17:22:28;14.28;81.03
71047;SHT31;58703;48.978;8.982;2022-10-01T17:24:53;14.28;80.54
71047;SHT31;58703;48.978;8.982;2022-10-01T17:27:19;14.33;81.00
71047;SHT31;58703;48.978;8.982;2022-10-01T17:29:44;14.39;80.17
71047;SHT31;58703;48.978;8.982;2022-10-01T17:32:13;14.33;81.22
71047;SHT31;58703;48.978;8.982;2022-10-01T17:34:44;14.50;79.94
71047;SHT31;58703;48.978;8.982;2022-10-01T17:37:10;14.33;81.03
71047;SHT31;58703;48.978;8.982;2022-10-01T17:39:35;14.25;81.70
71047;SHT31;58703;48.978;8.982;2022-10-01T17:42:02;14.19;81.63
71047;SHT31;58703;48.978;8.982;2022-10-01T17:44:27;14.23;81.45
71047;SHT31;58703;48.978;8.982;2022-10-01T17:46:53;14.29;81.87
71047;SHT31;58703;48.978;8.982;2022-10-01T17:49:18;13.98;83.80
71047;SHT31;58703;48.978;8.982;2022-10-01T17:51:44;13.64;86.36
71047;SHT31;58703;48.978;8.982;2022-10-01T17:54:09;13.50;87.10
71047;SHT31;58703;48.978;8.982;2022-10-01T17:56:35;13.46;87.43
71047;SHT31;58703;48.978;8.982;2022-10-01T17:59:02;13.46;88.06
71047;SHT31;58703;48.978;8.982;2022-10-01T18:01:29;13.55;87.06
71047;SHT31;58703;48.978;8.982;2022-10-01T18:03:56;13.72;86.70
71047;SHT31;58703;48.978;8.982;2022-10-01T18:06:26;13.64;87.29
71047;SHT31;58703;48.978;8.982;2022-10-01T18:08:52;13.48;88.26